sensor_id;sensor_type;location;lat;lon;timestamp;P1;durP1;ratioP1;P2;durP2;ratioP2
75732;SDS011;73508;47.450;19.128;2024-03-02T00:00:34;32.97;;;17.97;;
75732;SDS011;73508;47.450;19.128;2024-03-02T00:03:00;29.03;;;16.87;;
75732;SDS011;73508;47.450;19.128;2024-03-02T00:05:25;31.45;;;17.85;;
75732;SDS011;73508;47.450;19.128;2024-03-02T00:07:57;33.50;;;16.80;;
75732;SDS011;73508;47.450;19.128;2024-03-02T00:10:24;29.80;;;16.67;;
75732;SDS011;73508;47.450;19.128;2024-03-02T00:12:54;29.60;;;16.12;;
75732;SDS011;73508;47.450;19.128;2024-03-02T00:17:55;29.70;;;16.85;;
75732;SDS011;73508;47.450;19.128;2024-03-02T00:20:23;29.63;;;16.97;;
75732;SDS011;73508;47.450;19.128;2024-03-02T00:23:05;30.40;;;17.62;;
75732;SDS011;73508;47.450;19.128;2024-03-02T00:25:41;30.73;;;16.98;;
75732;SDS011;73508;47.450;19.128;2024-03-02T00:28:19;34.95;;;17.05;;
75732;SDS011;73508;47.450;19.128;2024-03-02T00:30:54;34.25;;;17.58;;
75732;SDS011;73508;47.450;19.128;2024-03-02T00:33:23;33.60;;;17.93;;
75732;SDS011;73508;47.450;19.128;2024-03-02T00:36:01;31.30;;;17.15;;
75732;SDS011;73508;47.450;19.128;2024-03-02T00:38:30;34.58;;;17.50;;
75732;SDS011;73508;47.450;19.128;2024-03-02T00:40:56;36.30;;;17.87;;
75732;SDS011;73508;47.450;19.128;2024-03-02T00:46:16;30.87;;;17.27;;
75732;SDS011;73508;47.450;19.128;2024-03-02T00:48:56;34.60;;;17.30;;
75732;SDS011;73508;47.450;19.128;2024-03-02T00:51:23;31.85;;;17.85;;
75732;SDS011;73508;47.450;19.128;2024-03-02T00:53:51;33.30;;;16.98;;
75732;SDS011;73508;47.450;19.128;2024-03-02T00:56:18;34.78;;;18.35;;
75732;SDS011;73508;47.450;19.128;2024-03-02T00:58:43;36.07;;;17.90;;
75732;SDS011;73508;47.450;19.128;2024-03-02T01:01:09;31.03;;;16.40;;
75732;SDS011;73508;47.450;19.128;2024-03-02T01:03:34;36.00;;;16.77;;
75732;SDS011;73508;47.450;19.128;2024-03-02T01:06:00;34.33;;;17.05;;
75732;SDS011;73508;47.450;19.128;2024-03-02T01:08:26;32.57;;;16.47;;
75732;SDS011;73508;47.450;19.128;2024-03-02T01:10:51;28.90;;;15.13;;
75732;SDS011;73508;47.450;19.128;2024-03-02T01:13:17;29.67;;;15.73;;
75732;SDS011;73508;47.450;19.128;2024-03-02T01:15:42;29.57;;;16.00;;
75732;SDS011;73508;47.450;19.128;2024-03-02T01:18:07;28.77;;;15.90;;
75732;SDS011;73508;47.450;19.128;2024-03-02T01:20:33;28.90;;;15.02;;
75732;SDS011;73508;47.450;19.128;2024-03-02T01:22:59;32.80;;;15.10;;
75732;SDS011;73508;47.450;19.128;2024-03-02T01:25:24;29.87;;;14.85;;
75732;SDS011;73508;47.450;19.128;2024-03-02T01:27:50;27.00;;;14.40;;
75732;SDS011;73508;47.450;19.128;2024-03-02T01:30:15;28.40;;;16.03;;
75732;SDS011;73508;47.450;19.128;2024-03-02T01:32:40;27.40;;;14.90;;
75732;SDS011;73508;47.450;19.128;2024-03-02T01:35:06;32.35;;;15.73;;
75732;SDS011;73508;47.450;19.128;2024-03-02T01:37:32;27.20;;;14.77;;
75732;SDS011;73508;47.450;19.128;2024-03-02T01:39:57;27.60;;;14.68;;
75732;SDS011;73508;47.450;19.128;2024-03-02T01:42:23;28.20;;;15.37;;
75732;SDS011;73508;47.450;19.128;2024-03-02T01:44:48;29.73;;;15.50;;
75732;SDS011;73508;47.450;19.128;2024-03-02T01:47:14;28.53;;;15.83;;
75732;SDS011;73508;47.450;19.128;2024-03-02T01:49:39;29.37;;;15.77;;
75732;SDS011;73508;47.450;19.128;2024-03-02T01:52:06;28.57;;;15.20;;
75732;SDS011;73508;47.450;19.128;2024-03-02T01:54:31;26.37;;;13.93;;
75732;SDS011;73508;47.450;19.128;2024-03-02T01:56:57;27.80;;;15.17;;
75732;SDS011;73508;47.450;19.128;2024-03-02T01:59:22;28.60;;;14.07;;
75732;SDS011;73508;47.450;19.128;2024-03-02T02:04:22;30.37;;;15.38;;
75732;SDS011;73508;47.450;19.128;2024-03-02T02:06:52;28.92;;;15.05;;
75732;SDS011;73508;47.450;19.128;2024-03-02T02:09:17;30.20;;;14.80;;
75732;SDS011;73508;47.450;19.128;2024-03-02T02:11:43;30.67;;;15.27;;
75732;SDS011;73508;47.450;19.128;2024-03-02T02:14:08;29.47;;;14.37;;
75732;SDS011;73508;47.450;19.128;2024-03-02T02:16:34;27.23;;;15.10;;
75732;SDS011;73508;47.450;19.128;2024-03-02T02:18:59;30.90;;;14.83;;
75732;SDS011;73508;47.450;19.128;2024-03-02T02:21:24;27.70;;;14.70;;
75732;SDS011;73508;47.450;19.128;2024-03-02T02:23:50;32.33;;;15.02;;
75732;SDS011;73508;47.450;19.128;2024-03-02T02:26:16;26.07;;;14.90;;
75732;SDS011;73508;47.450;19.128;2024-03-02T02:28:41;29.40;;;15.53;;
75732;SDS011;73508;47.450;19.128;2024-03-02T02:31:15;28.35;;;14.73;;
75732;SDS011;73508;47.450;19.128;2024-03-02T02:33:40;33.65;;;16.67;;
75732;SDS011;73508;47.450;19.128;2024-03-02T02:36:06;28.75;;;14.18;;
75732;SDS011;73508;47.450;19.128;2024-03-02T02:38:35;29.43;;;14.93;;
75732;SDS011;73508;47.450;19.128;2024-03-02T02:41:03;27.50;;;14.50;;
75732;SDS011;73508;47.450;19.128;2024-03-02T02:43:28;26.00;;;13.57;;
75732;SDS011;73508;47.450;19.128;2024-03-02T02:45:53;27.10;;;13.93;;
75732;SDS011;73508;47.450;19.128;2024-03-02T02:48:19;28.77;;;14.90;;
75732;SDS011;73508;47.450;19.128;2024-03-02T02:50:44;27.50;;;14.67;;
75732;SDS011;73508;47.450;19.128;2024-03-02T02:53:10;29.93;;;15.10;;
75732;SDS011;73508;47.450;19.128;2024-03-02T02:55:35;30.02;;;14.45;;
75732;SDS011;73508;47.450;19.128;2024-03-02T02:58:05;27.67;;;14.20;;
75732;SDS011;73508;47.450;19.128;2024-03-02T03:00:31;27.60;;;14.93;;
75732;SDS011;73508;47.450;19.128;2024-03-02T03:02:56;27.27;;;14.77;;
75732;SDS011;73508;47.450;19.128;2024-03-02T03:05:21;27.93;;;14.60;;
75732;SDS011;73508;47.450;19.128;2024-03-02T03:07:47;28.67;;;14.53;;
75732;SDS011;73508;47.450;19.128;2024-03-02T03:10:14;28.10;;;14.38;;
75732;SDS011;73508;47.450;19.128;2024-03-02T03:12:40;31.25;;;15.50;;
75732;SDS011;73508;47.450;19.128;2024-03-02T03:15:07;27.40;;;13.55;;
75732;SDS011;73508;47.450;19.128;2024-03-02T03:17:34;28.73;;;14.63;;
75732;SDS011;73508;47.450;19.128;2024-03-02T03:19:59;28.30;;;14.63;;
75732;SDS011;73508;47.450;19.128;2024-03-02T03:22:26;27.50;;;13.75;;
75732;SDS011;73508;47.450;19.128;2024-03-02T03:24:51;27.97;;;14.17;;
75732;SDS011;73508;47.450;19.128;2024-03-02T03:27:16;25.00;;;13.37;;
75732;SDS011;73508;47.450;19.128;2024-03-02T03:29:42;28.40;;;14.13;;
75732;SDS011;73508;47.450;19.128;2024-03-02T03:32:07;27.58;;;13.88;;
75732;SDS011;73508;47.450;19.128;2024-03-02T03:34:33;26.93;;;14.60;;
75732;SDS011;73508;47.450;19.128;2024-03-02T03:36:59;27.58;;;13.75;;
75732;SDS011;73508;47.450;19.128;2024-03-02T03:39:24;31.23;;;14.90;;
75732;SDS011;73508;47.450;19.128;2024-03-02T03:41:50;31.87;;;15.63;;
75732;SDS011;73508;47.450;19.128;2024-03-02T03:44:15;26.10;;;13.50;;
75732;SDS011;73508;47.450;19.128;2024-03-02T03:46:41;26.17;;;14.30;;
75732;SDS011;73508;47.450;19.128;2024-03-02T03:49:06;30.77;;;14.48;;
75732;SDS011;73508;47.450;19.128;2024-03-02T03:51:32;30.50;;;15.10;;
75732;SDS011;73508;47.450;19.128;2024-03-02T03:53:58;30.02;;;14.85;;
75732;SDS011;73508;47.450;19.128;2024-03-02T03:56:23;29.07;;;15.73;;
75732;SDS011;73508;47.450;19.128;2024-03-02T03:58:49;35.33;;;16.27;;
75732;SDS011;73508;47.450;19.128;2024-03-02T04:01:14;30.20;;;14.60;;
75732;SDS011;73508;47.450;19.128;2024-03-02T04:03:39;29.00;;;14.93;;
75732;SDS011;73508;47.450;19.128;2024-03-02T04:06:05;30.97;;;14.43;;
75732;SDS011;73508;47.450;19.128;2024-03-02T04:08:30;32.07;;;14.97;;
75732;SDS011;73508;47.450;19.128;2024-03-02T04:10:55;29.20;;;14.97;;
75732;SDS011;73508;47.450;19.128;2024-03-02T04:13:21;32.10;;;15.27;;
75732;SDS011;73508;47.450;19.128;2024-03-02T04:15:46;30.20;;;15.07;;
75732;SDS011;73508;47.450;19.128;2024-03-02T04:18:12;30.90;;;15.50;;
75732;SDS011;73508;47.450;19.128;2024-03-02T04:20:37;28.50;;;15.25;;
75732;SDS011;73508;47.450;19.128;2024-03-02T04:23:02;31.43;;;15.60;;
75732;SDS011;73508;47.450;19.128;2024-03-02T04:25:28;30.57;;;15.10;;
75732;SDS011;73508;47.450;19.128;2024-03-02T04:27:53;31.20;;;15.87;;
75732;SDS011;73508;47.450;19.128;2024-03-02T04:30:18;33.60;;;16.27;;
75732;SDS011;73508;47.450;19.128;2024-03-02T04:32:44;33.67;;;16.17;;
75732;SDS011;73508;47.450;19.128;2024-03-02T04:35:11;30.52;;;16.55;;
75732;SDS011;73508;47.450;19.128;2024-03-02T04:37:37;34.60;;;16.10;;
75732;SDS011;73508;47.450;19.128;2024-03-02T04:40:03;31.33;;;15.43;;
75732;SDS011;73508;47.450;19.128;2024-03-02T04:42:29;32.95;;;16.42;;
75732;SDS011;73508;47.450;19.128;2024-03-02T04:44:54;33.83;;;16.50;;
75732;SDS011;73508;47.450;19.128;2024-03-02T04:47:19;31.30;;;15.80;;
75732;SDS011;73508;47.450;19.128;2024-03-02T04:49:45;38.67;;;17.00;;
75732;SDS011;73508;47.450;19.128;2024-03-02T04:52:11;36.30;;;16.33;;
75732;SDS011;73508;47.450;19.128;2024-03-02T04:54:36;34.67;;;16.17;;
75732;SDS011;73508;47.450;19.128;2024-03-02T04:57:21;32.85;;;16.17;;
75732;SDS011;73508;47.450;19.128;2024-03-02T04:59:47;36.10;;;17.97;;
75732;SDS011;73508;47.450;19.128;2024-03-02T05:02:12;36.67;;;16.90;;
75732;SDS011;73508;47.450;19.128;2024-03-02T05:04:39;33.97;;;17.33;;
75732;SDS011;73508;47.450;19.128;2024-03-02T05:07:04;36.67;;;17.55;;
75732;SDS011;73508;47.450;19.128;2024-03-02T05:09:30;38.30;;;17.07;;
75732;SDS011;73508;47.450;19.128;2024-03-02T05:11:55;33.77;;;16.67;;
75732;SDS011;73508;47.450;19.128;2024-03-02T05:14:40;35.60;;;17.25;;
75732;SDS011;73508;47.450;19.128;2024-03-02T05:17:06;39.37;;;18.57;;
75732;SDS011;73508;47.450;19.128;2024-03-02T05:19:31;36.03;;;17.97;;
75732;SDS011;73508;47.450;19.128;2024-03-02T05:21:57;36.00;;;18.00;;
75732;SDS011;73508;47.450;19.128;2024-03-02T05:24:22;39.70;;;17.80;;
75732;SDS011;73508;47.450;19.128;2024-03-02T05:26:47;36.70;;;18.23;;
75732;SDS011;73508;47.450;19.128;2024-03-02T05:29:13;39.17;;;19.00;;
75732;SDS011;73508;47.450;19.128;2024-03-02T05:31:38;40.17;;;18.77;;
75732;SDS011;73508;47.450;19.128;2024-03-02T05:34:03;41.43;;;19.60;;
75732;SDS011;73508;47.450;19.128;2024-03-02T05:36:30;40.85;;;18.17;;
75732;SDS011;73508;47.450;19.128;2024-03-02T05:38:55;39.03;;;18.87;;
75732;SDS011;73508;47.450;19.128;2024-03-02T05:41:20;42.57;;;19.27;;
75732;SDS011;73508;47.450;19.128;2024-03-02T05:43:46;38.10;;;18.33;;
75732;SDS011;73508;47.450;19.128;2024-03-02T05:46:11;36.17;;;18.60;;
75732;SDS011;73508;47.450;19.128;2024-03-02T05:48:37;38.13;;;20.07;;
75732;SDS011;73508;47.450;19.128;2024-03-02T05:51:02;38.55;;;19.27;;
75732;SDS011;73508;47.450;19.128;2024-03-02T05:53:27;42.03;;;19.57;;
75732;SDS011;73508;47.450;19.128;2024-03-02T05:55:53;38.13;;;19.27;;
75732;SDS011;73508;47.450;19.128;2024-03-02T05:58:20;40.20;;;18.80;;
75732;SDS011;73508;47.450;19.128;2024-03-02T06:00:49;40.50;;;19.35;;
75732;SDS011;73508;47.450;19.128;2024-03-02T06:03:14;37.77;;;19.00;;
75732;SDS011;73508;47.450;19.128;2024-03-02T06:05:40;36.97;;;19.40;;
75732;SDS011;73508;47.450;19.128;2024-03-02T06:08:06;36.45;;;19.70;;
75732;SDS011;73508;47.450;19.128;2024-03-02T06:10:32;43.13;;;19.13;;
75732;SDS011;73508;47.450;19.128;2024-03-02T06:12:57;36.47;;;18.98;;
75732;SDS011;73508;47.450;19.128;2024-03-02T06:15:24;38.40;;;20.20;;
75732;SDS011;73508;47.450;19.128;2024-03-02T06:17:49;36.90;;;18.95;;
75732;SDS011;73508;47.450;19.128;2024-03-02T06:20:14;35.80;;;17.93;;
75732;SDS011;73508;47.450;19.128;2024-03-02T06:22:40;36.10;;;19.30;;
75732;SDS011;73508;47.450;19.128;2024-03-02T06:25:05;38.43;;;19.03;;
75732;SDS011;73508;47.450;19.128;2024-03-02T06:27:31;39.55;;;19.58;;
75732;SDS011;73508;47.450;19.128;2024-03-02T06:29:56;37.73;;;18.67;;
75732;SDS011;73508;47.450;19.128;2024-03-02T06:32:21;36.43;;;18.97;;
75732;SDS011;73508;47.450;19.128;2024-03-02T06:34:48;38.85;;;19.55;;
75732;SDS011;73508;47.450;19.128;2024-03-02T06:37:13;36.87;;;19.70;;
75732;SDS011;73508;47.450;19.128;2024-03-02T06:39:40;39.28;;;18.92;;
75732;SDS011;73508;47.450;19.128;2024-03-02T06:42:05;43.80;;;20.07;;
75732;SDS011;73508;47.450;19.128;2024-03-02T06:44:30;38.30;;;19.53;;
75732;SDS011;73508;47.450;19.128;2024-03-02T06:46:56;40.20;;;20.57;;
75732;SDS011;73508;47.450;19.128;2024-03-02T06:49:21;39.40;;;19.90;;
75732;SDS011;73508;47.450;19.128;2024-03-02T06:51:46;40.67;;;19.60;;
75732;SDS011;73508;47.450;19.128;2024-03-02T06:54:12;39.03;;;19.35;;
75732;SDS011;73508;47.450;19.128;2024-03-02T06:56:37;38.27;;;20.30;;
75732;SDS011;73508;47.450;19.128;2024-03-02T06:59:04;41.28;;;20.30;;
75732;SDS011;73508;47.450;19.128;2024-03-02T07:01:29;36.80;;;19.90;;
75732;SDS011;73508;47.450;19.128;2024-03-02T07:03:54;38.80;;;20.53;;
75732;SDS011;73508;47.450;19.128;2024-03-02T07:06:20;41.57;;;20.60;;
75732;SDS011;73508;47.450;19.128;2024-03-02T07:08:45;37.77;;;19.40;;
75732;SDS011;73508;47.450;19.128;2024-03-02T07:11:10;40.83;;;20.23;;
75732;SDS011;73508;47.450;19.128;2024-03-02T07:13:36;36.23;;;19.27;;
75732;SDS011;73508;47.450;19.128;2024-03-02T07:16:01;39.27;;;18.87;;
75732;SDS011;73508;47.450;19.128;2024-03-02T07:18:29;35.40;;;18.02;;
75732;SDS011;73508;47.450;19.128;2024-03-02T07:21:07;37.03;;;20.12;;
75732;SDS011;73508;47.450;19.128;2024-03-02T07:23:32;36.92;;;20.52;;
75732;SDS011;73508;47.450;19.128;2024-03-02T07:25:58;35.97;;;19.93;;
75732;SDS011;73508;47.450;19.128;2024-03-02T07:28:25;40.67;;;19.37;;
75732;SDS011;73508;47.450;19.128;2024-03-02T07:33:29;35.23;;;18.83;;
75732;SDS011;73508;47.450;19.128;2024-03-02T07:35:55;38.03;;;18.27;;
75732;SDS011;73508;47.450;19.128;2024-03-02T07:38:20;41.50;;;18.83;;
75732;SDS011;73508;47.450;19.128;2024-03-02T07:40:46;35.25;;;18.27;;
75732;SDS011;73508;47.450;19.128;2024-03-02T07:43:12;41.05;;;19.73;;
75732;SDS011;73508;47.450;19.128;2024-03-02T07:45:37;43.17;;;19.40;;
75732;SDS011;73508;47.450;19.128;2024-03-02T07:48:03;37.17;;;19.57;;
75732;SDS011;73508;47.450;19.128;2024-03-02T07:50:31;37.60;;;19.02;;
75732;SDS011;73508;47.450;19.128;2024-03-02T07:52:56;35.77;;;19.40;;
75732;SDS011;73508;47.450;19.128;2024-03-02T07:55:21;34.17;;;19.17;;
75732;SDS011;73508;47.450;19.128;2024-03-02T07:57:48;34.53;;;18.35;;
75732;SDS011;73508;47.450;19.128;2024-03-02T08:00:14;38.83;;;19.03;;
75732;SDS011;73508;47.450;19.128;2024-03-02T08:02:40;37.65;;;18.27;;
75732;SDS011;73508;47.450;19.128;2024-03-02T08:05:07;37.63;;;17.85;;
75732;SDS011;73508;47.450;19.128;2024-03-02T08:07:32;35.73;;;18.50;;
75732;SDS011;73508;47.450;19.128;2024-03-02T08:09:58;35.63;;;18.20;;
75732;SDS011;73508;47.450;19.128;2024-03-02T08:12:23;34.43;;;17.83;;
75732;SDS011;73508;47.450;19.128;2024-03-02T08:14:48;38.63;;;18.50;;
75732;SDS011;73508;47.450;19.128;2024-03-02T08:17:14;32.37;;;17.83;;
75732;SDS011;73508;47.450;19.128;2024-03-02T08:19:39;39.07;;;19.27;;
75732;SDS011;73508;47.450;19.128;2024-03-02T08:22:05;35.88;;;18.70;;
75732;SDS011;73508;47.450;19.128;2024-03-02T08:24:30;37.27;;;18.37;;
75732;SDS011;73508;47.450;19.128;2024-03-02T08:26:55;38.90;;;19.70;;
75732;SDS011;73508;47.450;19.128;2024-03-02T08:29:21;36.77;;;18.90;;
75732;SDS011;73508;47.450;19.128;2024-03-02T08:31:46;39.13;;;19.83;;
75732;SDS011;73508;47.450;19.128;2024-03-02T08:34:12;36.28;;;20.05;;
75732;SDS011;73508;47.450;19.128;2024-03-02T08:36:37;35.33;;;17.47;;
75732;SDS011;73508;47.450;19.128;2024-03-02T08:39:03;33.50;;;17.73;;
75732;SDS011;73508;47.450;19.128;2024-03-02T08:41:32;35.38;;;17.83;;
75732;SDS011;73508;47.450;19.128;2024-03-02T08:43:57;32.40;;;17.20;;
75732;SDS011;73508;47.450;19.128;2024-03-02T08:46:23;35.40;;;18.83;;
75732;SDS011;73508;47.450;19.128;2024-03-02T08:48:48;33.08;;;18.17;;
75732;SDS011;73508;47.450;19.128;2024-03-02T08:51:14;37.47;;;18.47;;
75732;SDS011;73508;47.450;19.128;2024-03-02T08:53:39;32.40;;;16.30;;
75732;SDS011;73508;47.450;19.128;2024-03-02T08:56:04;33.33;;;17.60;;
75732;SDS011;73508;47.450;19.128;2024-03-02T08:58:30;33.63;;;18.10;;
75732;SDS011;73508;47.450;19.128;2024-03-02T09:00:56;33.67;;;17.73;;
75732;SDS011;73508;47.450;19.128;2024-03-02T09:03:21;35.57;;;18.50;;
75732;SDS011;73508;47.450;19.128;2024-03-02T09:05:47;34.90;;;16.73;;
75732;SDS011;73508;47.450;19.128;2024-03-02T09:08:12;29.80;;;15.97;;
75732;SDS011;73508;47.450;19.128;2024-03-02T09:10:38;30.60;;;16.83;;
75732;SDS011;73508;47.450;19.128;2024-03-02T09:13:04;30.35;;;16.33;;
75732;SDS011;73508;47.450;19.128;2024-03-02T09:15:30;30.88;;;16.40;;
75732;SDS011;73508;47.450;19.128;2024-03-02T09:17:55;32.97;;;16.43;;
75732;SDS011;73508;47.450;19.128;2024-03-02T09:20:21;28.47;;;15.60;;
75732;SDS011;73508;47.450;19.128;2024-03-02T09:22:46;29.65;;;15.82;;
75732;SDS011;73508;47.450;19.128;2024-03-02T09:25:13;27.77;;;14.77;;
75732;SDS011;73508;47.450;19.128;2024-03-02T09:27:39;28.77;;;15.88;;
75732;SDS011;73508;47.450;19.128;2024-03-02T09:30:05;27.53;;;15.50;;
75732;SDS011;73508;47.450;19.128;2024-03-02T09:32:33;30.50;;;15.82;;
75732;SDS011;73508;47.450;19.128;2024-03-02T09:34:58;29.13;;;14.90;;
75732;SDS011;73508;47.450;19.128;2024-03-02T09:37:23;25.20;;;14.57;;
75732;SDS011;73508;47.450;19.128;2024-03-02T09:39:49;25.43;;;14.37;;
75732;SDS011;73508;47.450;19.128;2024-03-02T09:42:14;23.98;;;14.02;;
75732;SDS011;73508;47.450;19.128;2024-03-02T09:44:40;23.60;;;13.60;;
75732;SDS011;73508;47.450;19.128;2024-03-02T09:47:06;25.80;;;14.13;;
75732;SDS011;73508;47.450;19.128;2024-03-02T09:49:32;26.55;;;14.52;;
75732;SDS011;73508;47.450;19.128;2024-03-02T09:51:57;25.13;;;14.03;;
75732;SDS011;73508;47.450;19.128;2024-03-02T09:54:22;25.40;;;14.63;;
75732;SDS011;73508;47.450;19.128;2024-03-02T09:56:48;26.87;;;14.15;;
75732;SDS011;73508;47.450;19.128;2024-03-02T09:59:14;27.17;;;15.23;;
75732;SDS011;73508;47.450;19.128;2024-03-02T10:01:55;26.52;;;14.48;;
75732;SDS011;73508;47.450;19.128;2024-03-02T10:04:21;27.77;;;15.23;;
75732;SDS011;73508;47.450;19.128;2024-03-02T10:06:47;25.40;;;14.55;;
75732;SDS011;73508;47.450;19.128;2024-03-02T10:09:13;24.33;;;13.80;;
75732;SDS011;73508;47.450;19.128;2024-03-02T10:11:51;24.83;;;14.27;;
75732;SDS011;73508;47.450;19.128;2024-03-02T10:14:17;23.87;;;13.07;;
75732;SDS011;73508;47.450;19.128;2024-03-02T10:16:43;23.87;;;12.93;;
75732;SDS011;73508;47.450;19.128;2024-03-02T10:21:51;23.30;;;13.98;;
75732;SDS011;73508;47.450;19.128;2024-03-02T10:24:17;24.98;;;14.60;;
75732;SDS011;73508;47.450;19.128;2024-03-02T10:26:43;24.73;;;14.40;;
75732;SDS011;73508;47.450;19.128;2024-03-02T10:29:09;26.57;;;14.97;;
75732;SDS011;73508;47.450;19.128;2024-03-02T10:31:37;25.27;;;13.82;;
75732;SDS011;73508;47.450;19.128;2024-03-02T10:34:03;22.87;;;13.23;;
75732;SDS011;73508;47.450;19.128;2024-03-02T10:36:29;23.77;;;12.63;;
75732;SDS011;73508;47.450;19.128;2024-03-02T10:38:56;21.23;;;12.40;;
75732;SDS011;73508;47.450;19.128;2024-03-02T10:41:26;24.42;;;13.35;;
75732;SDS011;73508;47.450;19.128;2024-03-02T10:43:52;22.33;;;13.00;;
75732;SDS011;73508;47.450;19.128;2024-03-02T10:46:24;20.30;;;12.07;;
75732;SDS011;73508;47.450;19.128;2024-03-02T10:48:53;18.07;;;10.17;;
75732;SDS011;73508;47.450;19.128;2024-03-02T10:51:27;19.58;;;11.48;;
75732;SDS011;73508;47.450;19.128;2024-03-02T10:53:56;20.33;;;11.85;;
75732;SDS011;73508;47.450;19.128;2024-03-02T10:56:25;19.40;;;11.35;;
75732;SDS011;73508;47.450;19.128;2024-03-02T10:58:55;18.30;;;10.73;;
75732;SDS011;73508;47.450;19.128;2024-03-02T11:01:47;18.45;;;11.00;;
75732;SDS011;73508;47.450;19.128;2024-03-02T11:04:13;17.37;;;9.95;;
75732;SDS011;73508;47.450;19.128;2024-03-02T11:06:42;19.42;;;11.30;;
75732;SDS011;73508;47.450;19.128;2024-03-02T11:09:13;21.95;;;11.52;;
75732;SDS011;73508;47.450;19.128;2024-03-02T11:11:43;18.37;;;10.67;;
75732;SDS011;73508;47.450;19.128;2024-03-02T11:14:11;19.83;;;10.68;;
75732;SDS011;73508;47.450;19.128;2024-03-02T11:16:41;17.52;;;9.93;;
75732;SDS011;73508;47.450;19.128;2024-03-02T11:19:11;18.75;;;9.90;;
75732;SDS011;73508;47.450;19.128;2024-03-02T11:21:38;15.70;;;9.60;;
75732;SDS011;73508;47.450;19.128;2024-03-02T11:26:53;17.50;;;10.75;;
75732;SDS011;73508;47.450;19.128;2024-03-02T11:32:04;15.10;;;9.33;;
75732;SDS011;73508;47.450;19.128;2024-03-02T11:34:30;16.87;;;9.88;;
75732;SDS011;73508;47.450;19.128;2024-03-02T11:36:56;15.90;;;9.60;;
75732;SDS011;73508;47.450;19.128;2024-03-02T11:39:30;16.27;;;10.07;;
75732;SDS011;73508;47.450;19.128;2024-03-02T11:41:56;15.63;;;9.63;;
75732;SDS011;73508;47.450;19.128;2024-03-02T11:44:22;18.12;;;11.07;;
75732;SDS011;73508;47.450;19.128;2024-03-02T11:46:59;15.50;;;9.63;;
75732;SDS011;73508;47.450;19.128;2024-03-02T11:52:07;21.58;;;11.10;;
75732;SDS011;73508;47.450;19.128;2024-03-02T11:54:34;21.15;;;11.65;;
75732;SDS011;73508;47.450;19.128;2024-03-02T11:57:01;18.73;;;10.40;;
75732;SDS011;73508;47.450;19.128;2024-03-02T11:59:28;17.35;;;9.48;;
75732;SDS011;73508;47.450;19.128;2024-03-02T12:01:54;14.30;;;9.37;;
75732;SDS011;73508;47.450;19.128;2024-03-02T12:04:19;16.10;;;9.30;;
75732;SDS011;73508;47.450;19.128;2024-03-02T12:06:45;16.60;;;9.60;;
75732;SDS011;73508;47.450;19.128;2024-03-02T12:09:11;17.05;;;10.02;;
75732;SDS011;73508;47.450;19.128;2024-03-02T12:11:37;15.83;;;9.30;;
75732;SDS011;73508;47.450;19.128;2024-03-02T12:14:02;19.90;;;10.30;;
75732;SDS011;73508;47.450;19.128;2024-03-02T12:16:29;18.03;;;9.73;;
75732;SDS011;73508;47.450;19.128;2024-03-02T12:18:54;16.95;;;9.32;;
75732;SDS011;73508;47.450;19.128;2024-03-02T12:21:20;19.97;;;10.83;;
75732;SDS011;73508;47.450;19.128;2024-03-02T12:23:45;18.37;;;10.20;;
75732;SDS011;73508;47.450;19.128;2024-03-02T12:26:11;17.27;;;9.80;;
75732;SDS011;73508;47.450;19.128;2024-03-02T12:28:36;17.98;;;9.93;;
75732;SDS011;73508;47.450;19.128;2024-03-02T12:31:02;18.63;;;10.67;;
75732;SDS011;73508;47.450;19.128;2024-03-02T12:33:27;20.43;;;10.67;;
75732;SDS011;73508;47.450;19.128;2024-03-02T12:35:54;17.15;;;9.82;;
75732;SDS011;73508;47.450;19.128;2024-03-02T12:38:19;18.87;;;10.20;;
75732;SDS011;73508;47.450;19.128;2024-03-02T12:40:47;16.23;;;9.57;;
75732;SDS011;73508;47.450;19.128;2024-03-02T12:43:13;17.12;;;10.20;;
75732;SDS011;73508;47.450;19.128;2024-03-02T12:45:38;21.37;;;12.10;;
75732;SDS011;73508;47.450;19.128;2024-03-02T12:48:04;20.50;;;11.40;;
75732;SDS011;73508;47.450;19.128;2024-03-02T12:50:30;21.55;;;11.88;;
75732;SDS011;73508;47.450;19.128;2024-03-02T12:52:55;20.30;;;11.07;;
75732;SDS011;73508;47.450;19.128;2024-03-02T12:55:21;23.17;;;11.30;;
75732;SDS011;73508;47.450;19.128;2024-03-02T12:57:47;20.48;;;12.10;;
75732;SDS011;73508;47.450;19.128;2024-03-02T13:00:13;21.10;;;11.73;;
75732;SDS011;73508;47.450;19.128;2024-03-02T13:02:41;21.92;;;11.60;;
75732;SDS011;73508;47.450;19.128;2024-03-02T13:05:07;24.20;;;12.03;;
75732;SDS011;73508;47.450;19.128;2024-03-02T13:07:36;20.75;;;11.25;;
75732;SDS011;73508;47.450;19.128;2024-03-02T13:10:03;20.50;;;11.73;;
75732;SDS011;73508;47.450;19.128;2024-03-02T13:12:29;18.40;;;10.65;;
75732;SDS011;73508;47.450;19.128;2024-03-02T13:14:55;17.83;;;9.27;;
75732;SDS011;73508;47.450;19.128;2024-03-02T13:17:23;20.67;;;10.00;;
75732;SDS011;73508;47.450;19.128;2024-03-02T13:19:57;20.60;;;10.52;;
75732;SDS011;73508;47.450;19.128;2024-03-02T13:22:24;21.13;;;10.40;;
75732;SDS011;73508;47.450;19.128;2024-03-02T13:24:50;18.05;;;9.75;;
75732;SDS011;73508;47.450;19.128;2024-03-02T13:27:15;21.25;;;10.40;;
75732;SDS011;73508;47.450;19.128;2024-03-02T13:29:41;21.67;;;11.40;;
75732;SDS011;73508;47.450;19.128;2024-03-02T13:32:07;21.27;;;11.00;;
75732;SDS011;73508;47.450;19.128;2024-03-02T13:34:34;22.08;;;10.80;;
75732;SDS011;73508;47.450;19.128;2024-03-02T13:37:00;26.20;;;10.80;;
75732;SDS011;73508;47.450;19.128;2024-03-02T13:39:26;23.40;;;11.93;;
75732;SDS011;73508;47.450;19.128;2024-03-02T13:41:52;22.90;;;10.57;;
75732;SDS011;73508;47.450;19.128;2024-03-02T13:44:18;19.77;;;10.15;;
75732;SDS011;73508;47.450;19.128;2024-03-02T13:46:44;19.12;;;9.95;;
75732;SDS011;73508;47.450;19.128;2024-03-02T13:49:11;22.27;;;10.45;;
75732;SDS011;73508;47.450;19.128;2024-03-02T13:51:36;19.50;;;9.83;;
75732;SDS011;73508;47.450;19.128;2024-03-02T13:54:02;21.45;;;10.65;;
75732;SDS011;73508;47.450;19.128;2024-03-02T13:56:28;23.30;;;11.13;;
75732;SDS011;73508;47.450;19.128;2024-03-02T13:58:54;24.90;;;11.15;;
75732;SDS011;73508;47.450;19.128;2024-03-02T14:01:19;24.57;;;11.23;;
75732;SDS011;73508;47.450;19.128;2024-03-02T14:03:45;22.63;;;10.63;;
75732;SDS011;73508;47.450;19.128;2024-03-02T14:06:11;22.07;;;10.70;;
75732;SDS011;73508;47.450;19.128;2024-03-02T14:08:36;21.95;;;10.60;;
75732;SDS011;73508;47.450;19.128;2024-03-02T14:11:02;19.63;;;9.77;;
75732;SDS011;73508;47.450;19.128;2024-03-02T14:13:28;23.33;;;11.07;;
75732;SDS011;73508;47.450;19.128;2024-03-02T14:15:54;21.27;;;10.10;;
75732;SDS011;73508;47.450;19.128;2024-03-02T14:18:19;23.98;;;11.02;;
75732;SDS011;73508;47.450;19.128;2024-03-02T14:20:46;24.50;;;11.40;;
75732;SDS011;73508;47.450;19.128;2024-03-02T14:23:17;20.67;;;10.70;;
75732;SDS011;73508;47.450;19.128;2024-03-02T14:25:42;22.30;;;11.00;;